Time;durP1;ratioP1;P1;durP2;ratioP2;P2;SDS_P1;SDS_P2;PMS_P1;PMS_P2;Temp;Humidity;BMP_temperature;BMP_pressure;BME280_temperature;BME280_humidity;BME280_pressure;Samples;Min_cycle;Max_cycle;Signal;HPM_P1;HPM_P2
2022/06/05 00:01:26;;;;;;;13.63;8.70;;;;;;;18.11;61.33;101695.59;4984871;28;20528;-75
2022/06/05 00:04:01;;;;;;;17.33;8.40;;;;;;;18.08;61.66;101693.09;4965729;28;20106;-75
2022/06/05 00:06:33;;;;;;;13.40;8.45;;;;;;;18.03;61.39;101697.69;4971992;28;20113;-75
2022/06/05 00:09:02;;;;;;;13.82;8.27;;;;;;;18.02;62.47;101689.88;4971731;28;20414;-75
2022/06/05 00:11:35;;;;;;;15.05;8.10;;;;;;;17.98;62.55;101691.78;4971667;28;20467;-75
2022/06/05 00:14:01;;;;;;;12.98;8.38;;;;;;;17.94;63.23;101682.34;4967129;28;20033;-75
2022/06/05 00:16:28;;;;;;;13.85;8.07;;;;;;;17.93;63.62;101680.63;4972014;28;20030;-75
2022/06/05 00:18:54;;;;;;;17.13;9.07;;;;;;;17.90;62.40;101674.63;4970528;28;20030;-75
2022/06/05 00:21:19;;;;;;;16.30;8.60;;;;;;;17.88;62.52;101663.38;4971165;28;20505;-75
2022/06/05 00:23:46;;;;;;;14.40;8.93;;;;;;;17.86;62.42;101666.06;4965855;28;20023;-75
2022/06/05 00:26:17;;;;;;;16.98;8.75;;;;;;;17.83;62.90;101663.53;4969464;28;20030;-75
2022/06/05 00:29:10;;;;;;;14.45;8.50;;;;;;;17.80;63.17;101668.94;4973604;28;20022;-75
2022/06/05 00:31:52;;;;;;;14.63;8.23;;;;;;;17.78;64.70;101676.00;4967926;28;20043;-75
2022/06/05 00:34:17;;;;;;;15.07;8.95;;;;;;;17.73;63.35;101668.31;4975024;28;20461;-75
2022/06/05 00:37:10;;;;;;;14.93;8.77;;;;;;;17.72;63.56;101663.13;4970833;28;20035;-75
2022/06/05 00:39:56;;;;;;;14.43;8.55;;;;;;;17.67;63.76;101657.22;4970713;28;20034;-75
2022/06/05 00:42:26;;;;;;;14.02;8.13;;;;;;;17.62;64.65;101654.78;4970757;28;20027;-75
2022/06/05 00:44:57;;;;;;;16.30;8.55;;;;;;;17.58;63.97;101649.69;4968225;28;20370;-75
2022/06/05 00:47:26;;;;;;;16.13;9.18;;;;;;;17.54;64.01;101648.94;4970729;28;20123;-75
2022/06/05 00:50:00;;;;;;;15.18;8.88;;;;;;;17.49;64.56;101637.78;4970888;28;20035;-75
2022/06/05 00:52:30;;;;;;;15.52;8.95;;;;;;;17.47;64.39;101642.22;4970834;28;20038;-75
2022/06/05 00:54:56;;;;;;;15.93;9.00;;;;;;;17.45;64.72;101640.59;4981208;28;20030;-75
2022/06/05 00:57:21;;;;;;;15.05;8.70;;;;;;;17.37;64.38;101625.16;4969365;28;21698;-75
2022/06/05 00:59:50;;;;;;;16.85;8.60;;;;;;;17.38;64.99;101629.50;4969920;28;20035;-75
2022/06/05 01:02:17;;;;;;;12.77;8.70;;;;;;;17.38;65.38;101637.38;4977582;28;20058;-75
2022/06/05 01:04:46;;;;;;;13.82;9.27;;;;;;;17.33;64.90;101640.16;4965872;28;20027;-75
2022/06/05 01:07:12;;;;;;;13.20;8.90;;;;;;;17.31;65.53;101642.00;4967889;28;20122;-75
2022/06/05 01:09:40;;;;;;;14.98;8.80;;;;;;;17.30;66.01;101639.44;4967361;28;20109;-75
2022/06/05 01:12:24;;;;;;;15.90;9.18;;;;;;;17.25;64.99;101637.00;4962060;28;20497;-75
2022/06/05 01:15:07;;;;;;;15.10;8.50;;;;;;;17.24;65.30;101637.06;4970631;28;20051;-75
2022/06/05 01:17:45;;;;;;;12.90;8.90;;;;;;;17.23;65.36;101627.47;4963390;28;20381;-75
2022/06/05 01:20:20;;;;;;;15.93;9.00;;;;;;;17.22;64.93;101624.00;4972867;28;20121;-75
2022/06/05 01:23:00;;;;;;;15.15;9.60;;;;;;;17.20;64.86;101624.97;4962398;28;20027;-75
2022/06/05 01:25:30;;;;;;;14.77;8.90;;;;;;;17.19;64.76;101624.13;4977866;28;20475;-75
2022/06/05 01:27:59;;;;;;;14.52;9.52;;;;;;;17.17;64.95;101625.09;4969238;28;20482;-75
2022/06/05 01:30:25;;;;;;;16.20;9.27;;;;;;;17.15;64.50;101617.28;4969854;28;20058;-75
2022/06/05 01:33:04;;;;;;;15.70;9.05;;;;;;;17.18;64.57;101611.09;4984017;28;20516;-75
2022/06/05 01:35:33;;;;;;;14.85;9.50;;;;;;;17.14;65.70;101607.72;4970283;28;20248;-75
2022/06/05 01:38:05;;;;;;;14.77;9.07;;;;;;;17.10;64.90;101608.75;4969695;28;20130;-75
2022/06/05 01:40:37;;;;;;;14.32;9.27;;;;;;;17.11;65.29;101597.38;4974385;28;20038;-78
2022/06/05 01:43:17;;;;;;;16.90;9.40;;;;;;;17.12;65.00;101603.47;4968986;28;20062;-78
2022/06/05 01:45:49;;;;;;;16.08;9.05;;;;;;;17.13;64.30;101605.16;4974784;28;20026;-78
2022/06/05 01:48:20;;;;;;;14.25;9.20;;;;;;;17.11;64.65;101615.72;4971840;28;20031;-78
2022/06/05 01:50:48;;;;;;;14.30;8.98;;;;;;;17.14;66.01;101620.81;4974325;28;20328;-78
2022/06/05 01:53:19;;;;;;;13.55;8.13;;;;;;;17.17;66.56;101632.97;4964842;28;20027;-78
2022/06/05 01:55:51;;;;;;;13.77;8.98;;;;;;;17.18;66.70;101646.00;4969060;28;20049;-78
2022/06/05 01:58:21;;;;;;;14.55;9.07;;;;;;;17.19;66.47;101639.84;4970347;28;20031;-79
2022/06/05 02:00:53;;;;;;;16.15;9.90;;;;;;;17.21;64.82;101634.53;4975547;28;20030;-78
2022/06/05 02:03:30;;;;;;;14.32;9.05;;;;;;;17.21;64.26;101640.63;4970415;28;20035;-78
2022/06/05 02:06:22;;;;;;;16.35;9.10;;;;;;;17.21;63.95;101640.63;4970223;28;20038;-78
2022/06/05 02:09:13;;;;;;;14.35;8.77;;;;;;;17.25;65.21;101644.84;4977997;28;20050;-76
2022/06/05 02:11:39;;;;;;;13.50;8.85;;;;;;;17.21;66.59;101613.56;4969804;28;20035;-75
2022/06/05 02:14:09;;;;;;;14.68;9.23;;;;;;;17.18;64.29;101590.97;4969934;28;20401;-75
2022/06/05 02:16:37;;;;;;;13.80;9.05;;;;;;;17.15;64.18;101574.50;4971644;28;20508;-75
2022/06/05 02:19:07;;;;;;;14.70;9.25;;;;;;;17.13;64.11;101568.47;4968603;28;20025;-75
2022/06/05 02:21:33;;;;;;;15.68;9.02;;;;;;;17.11;64.25;101578.19;4962538;28;20630;-76
2022/06/05 02:23:58;;;;;;;13.52;8.85;;;;;;;17.11;66.01;101568.56;4969963;28;20105;-75
2022/06/05 02:26:27;;;;;;;12.43;8.57;;;;;;;17.11;66.18;101575.56;4970013;28;20166;-76
2022/06/05 02:28:52;;;;;;;13.88;8.68;;;;;;;17.07;66.96;101571.34;4968562;28;20346;-75
2022/06/05 02:31:47;;;;;;;14.57;8.55;;;;;;;17.05;65.61;101555.69;4979573;28;20475;-75
2022/06/05 02:34:36;;;;;;;13.93;8.77;;;;;;;17.05;65.30;101552.22;4968756;28;20108;-75
2022/06/05 02:37:03;;;;;;;15.68;8.85;;;;;;;17.02;64.40;101552.31;4969726;28;20042;-75
2022/06/05 02:39:48;;;;;;;14.48;8.45;;;;;;;16.98;64.61;101541.13;4974733;28;20088;-75
2022/06/05 02:42:29;;;;;;;13.88;8.80;;;;;;;16.94;64.54;101529.06;4968946;28;20046;-75
2022/06/05 02:45:00;;;;;;;15.02;8.82;;;;;;;16.92;64.19;101526.47;4975571;28;20034;-75
2022/06/05 02:47:36;;;;;;;14.98;9.18;;;;;;;16.88;66.20;101519.66;4973177;28;20089;-75
2022/06/05 02:50:15;;;;;;;16.83;8.70;;;;;;;16.89;64.56;101520.53;4973359;28;20022;-76
2022/06/05 02:52:41;;;;;;;12.30;8.10;;;;;;;16.88;65.38;101526.69;4975429;28;20062;-75
2022/06/05 02:55:07;;;;;;;14.30;8.57;;;;;;;16.85;64.86;101518.94;4977494;28;20022;-75
2022/06/05 02:57:33;;;;;;;17.52;9.02;;;;;;;16.86;65.31;101515.41;4975881;28;20335;-75
2022/06/05 02:59:58;;;;;;;14.50;8.82;;;;;;;16.85;65.37;101509.34;4975808;28;20069;-76
2022/06/05 03:05:08;;;;;;;14.32;8.32;;;;;;;16.83;64.46;101511.16;4973342;28;20049;-75
2022/06/05 03:07:35;;;;;;;15.07;9.07;;;;;;;16.79;64.63;101500.84;4972559;28;20565;-75
2022/06/05 03:10:00;;;;;;;14.43;8.77;;;;;;;16.81;64.74;101501.63;4973048;28;20033;-75
2022/06/05 03:12:25;;;;;;;16.17;8.85;;;;;;;16.78;64.43;101497.41;4975950;28;20049;-75
2022/06/05 03:14:55;;;;;;;15.35;8.68;;;;;;;16.76;65.42;101493.97;4972397;28;20414;-75
2022/06/05 03:17:21;;;;;;;17.38;9.18;;;;;;;16.75;65.77;101494.03;4972759;28;20142;-75
2022/06/05 03:19:46;;;;;;;16.73;8.50;;;;;;;16.75;65.11;101496.66;4972081;28;20383;-75
2022/06/05 03:22:11;;;;;;;13.73;8.82;;;;;;;16.76;65.10;101490.50;4970101;28;20285;-75
2022/06/05 03:24:37;;;;;;;14.75;8.70;;;;;;;16.77;65.13;101484.34;4972730;28;20030;-75
2022/06/05 03:27:02;;;;;;;15.70;8.80;;;;;;;16.74;66.07;101472.22;4978517;28;20037;-75
2022/06/05 03:29:28;;;;;;;16.80;9.13;;;;;;;16.75;65.26;101473.94;4972402;28;20026;-75
2022/06/05 03:31:53;;;;;;;16.17;9.10;;;;;;;16.73;65.99;101474.91;4972582;28;20046;-75
2022/06/05 03:34:18;;;;;;;17.23;9.77;;;;;;;16.69;65.53;101468.94;4972690;28;20517;-75
2022/06/05 03:36:46;;;;;;;15.27;9.90;;;;;;;16.64;65.59;101459.56;4971569;28;20312;-75
2022/06/05 03:39:11;;;;;;;18.83;10.07;;;;;;;16.57;65.55;101462.38;4971785;28;20030;-75
2022/06/05 03:41:37;;;;;;;17.42;9.63;;;;;;;16.57;66.63;101472.00;4974689;28;20023;-75
2022/06/05 03:44:02;;;;;;;15.52;9.82;;;;;;;16.49;66.22;101466.22;4973002;28;20019;-75
2022/06/05 03:46:28;;;;;;;19.80;10.13;;;;;;;16.48;66.38;101461.88;4987343;28;20485;-75
2022/06/05 03:48:53;;;;;;;17.60;10.23;;;;;;;16.47;67.00;101463.63;4972279;28;20034;-78
2022/06/05 03:51:21;;;;;;;16.17;9.50;;;;;;;16.48;67.57;101465.34;4975329;28;20113;-78
2022/06/05 03:53:47;;;;;;;20.52;10.35;;;;;;;16.46;67.83;101463.69;4961692;28;20026;-78
2022/06/05 03:56:18;;;;;;;16.42;9.90;;;;;;;16.45;67.09;101460.22;4975666;28;20030;-77
2022/06/05 03:58:45;;;;;;;16.85;10.00;;;;;;;16.44;66.81;101460.31;4972651;28;20022;-78
2022/06/05 04:01:12;;;;;;;18.85;10.02;;;;;;;16.42;67.44;101476.06;4980860;28;20096;-78
2022/06/05 04:03:38;;;;;;;17.88;10.13;;;;;;;16.40;67.48;101474.41;4972579;28;20118;-78
2022/06/05 04:06:08;;;;;;;16.67;9.77;;;;;;;16.38;67.07;101473.59;4971357;28;20105;-78
2022/06/05 04:08:34;;;;;;;17.42;10.20;;;;;;;16.35;67.08;101471.97;4971603;28;20026;-78
2022/06/05 04:11:04;;;;;;;16.83;9.80;;;;;;;16.32;67.26;101473.81;4975298;28;20370;-78
2022/06/05 04:13:30;;;;;;;17.40;10.10;;;;;;;16.29;67.57;101472.19;4986426;28;20034;-78
2022/06/05 04:15:55;;;;;;;19.83;9.43;;;;;;;16.29;68.49;101473.94;4979097;28;20034;-78
2022/06/05 04:18:20;;;;;;;15.50;9.48;;;;;;;16.28;68.03;101467.88;4973045;28;20643;-78
2022/06/05 04:20:46;;;;;;;17.40;9.80;;;;;;;16.24;68.53;101460.19;4974625;28;20046;-78
2022/06/05 04:23:11;;;;;;;18.13;10.20;;;;;;;16.24;68.38;101463.63;4971236;28;20030;-78
2022/06/05 04:25:36;;;;;;;20.08;10.38;;;;;;;16.22;68.36;101456.78;4974738;28;20130;-78
2022/06/05 04:28:02;;;;;;;20.27;10.65;;;;;;;16.19;68.44;101445.50;4971599;28;20170;-78
2022/06/05 04:30:27;;;;;;;19.23;10.32;;;;;;;16.19;68.82;101450.75;4971339;28;20113;-78
2022/06/05 04:32:53;;;;;;;16.85;9.98;;;;;;;16.20;69.06;101441.13;4968322;28;20034;-78
2022/06/05 04:35:18;;;;;;;21.08;10.68;;;;;;;16.18;68.56;101437.72;4983344;28;20030;-78
2022/06/05 04:37:43;;;;;;;20.10;10.70;;;;;;;16.13;68.74;101434.44;4966204;28;20031;-78
2022/06/05 04:40:09;;;;;;;17.63;10.30;;;;;;;16.15;69.94;101440.47;4975818;28;20070;-78
2022/06/05 04:42:34;;;;;;;15.85;9.85;;;;;;;16.13;68.94;101440.50;4970332;28;20030;-78
2022/06/05 04:45:00;;;;;;;19.02;10.63;;;;;;;16.11;68.93;101444.94;4981109;28;20093;-78
2022/06/05 04:47:26;;;;;;;19.27;10.50;;;;;;;16.09;69.04;101438.94;4970564;28;20043;-78
2022/06/05 04:49:51;;;;;;;17.92;10.45;;;;;;;16.09;68.98;101448.53;4968958;28;20034;-75
2022/06/05 04:52:16;;;;;;;20.52;10.95;;;;;;;16.08;68.88;101437.22;4970763;28;20090;-75
2022/06/05 04:54:41;;;;;;;15.82;10.10;;;;;;;16.10;69.51;101440.59;4974484;28;20504;-75
2022/06/05 04:57:07;;;;;;;17.07;10.53;;;;;;;16.11;69.79;101444.94;4971190;28;20527;-75
2022/06/05 04:59:33;;;;;;;18.88;10.68;;;;;;;16.10;69.06;101440.59;4968431;28;20377;-75
2022/06/05 05:01:58;;;;;;;17.23;10.15;;;;;;;16.13;70.00;101442.28;4974836;28;20390;-75
2022/06/05 05:04:23;;;;;;;16.73;10.25;;;;;;;16.11;69.79;101442.31;4972409;28;20111;-75
2022/06/05 05:06:49;;;;;;;18.90;10.50;;;;;;;16.12;69.15;101448.41;4970524;28;20023;-75
2022/06/05 05:09:14;;;;;;;18.77;11.05;;;;;;;16.13;69.38;101439.66;4968117;28;20360;-75
2022/06/05 05:11:40;;;;;;;19.63;10.30;;;;;;;16.15;70.57;101441.31;4970910;28;20077;-75
2022/06/05 05:14:06;;;;;;;18.05;10.43;;;;;;;16.14;70.01;101439.59;4968169;28;20131;-75
2022/06/05 05:16:32;;;;;;;17.90;10.45;;;;;;;16.15;69.97;101441.31;4969759;28;20493;-75
2022/06/05 05:18:57;;;;;;;19.38;10.60;;;;;;;16.14;69.34;101446.59;4970618;28;20039;-75
2022/06/05 05:21:24;;;;;;;17.30;10.57;;;;;;;16.12;69.51;101449.25;4969863;28;20026;-75
2022/06/05 05:23:50;;;;;;;19.55;10.73;;;;;;;16.11;69.75;101459.78;4966456;28;20042;-75
2022/06/05 05:26:18;;;;;;;16.83;10.52;;;;;;;16.14;69.53;101468.38;4970216;28;20019;-76
2022/06/05 05:28:44;;;;;;;17.95;10.43;;;;;;;16.17;70.74;101468.25;4970403;28;20037;-75
2022/06/05 05:31:12;;;;;;;18.85;10.68;;;;;;;16.16;69.79;101456.09;4971595;28;20030;-75
2022/06/05 05:33:39;;;;;;;17.38;10.80;;;;;;;16.24;70.15;101461.03;4969466;28;20022;-75
2022/06/05 05:36:05;;;;;;;19.38;11.18;;;;;;;16.25;70.79;101459.25;4970180;28;20031;-75
2022/06/05 05:38:30;;;;;;;22.60;11.32;;;;;;;16.27;70.44;101454.84;4969918;28;20039;-75
2022/06/05 05:43:40;;;;;;;17.38;11.38;;;;;;;16.38;71.00;101453.50;4953527;28;20161;-75
2022/06/05 05:46:10;;;;;;;19.35;11.68;;;;;;;16.46;71.79;101445.38;4968503;28;20039;-75
2022/06/05 05:48:36;;;;;;;18.80;11.65;;;;;;;16.53;69.86;101452.06;4976602;28;20034;-79
2022/06/05 05:51:01;;;;;;;19.42;11.38;;;;;;;16.57;69.73;101451.91;4976230;28;20045;-79
2022/06/05 05:53:26;;;;;;;19.30;11.20;;;;;;;16.65;70.92;101453.41;4961503;28;20043;-78
2022/06/05 05:55:51;;;;;;;19.20;11.38;;;;;;;16.72;70.33;101449.66;4960839;28;20034;-79
2022/06/05 05:58:17;;;;;;;21.67;12.00;;;;;;;16.76;70.55;101453.84;4964925;28;20046;-78
2022/06/05 06:00:42;;;;;;;20.07;11.77;;;;;;;16.84;70.43;101450.00;4968045;28;20043;-78
2022/06/05 06:03:08;;;;;;;19.75;11.80;;;;;;;16.87;68.75;101444.63;4969839;28;20364;-79
2022/06/05 06:05:34;;;;;;;19.42;11.20;;;;;;;16.90;69.56;101433.19;4966696;28;20035;-78
2022/06/05 06:07:59;;;;;;;18.70;11.73;;;;;;;16.93;67.50;101433.91;4971494;28;20481;-79
2022/06/05 06:10:25;;;;;;;17.48;11.07;;;;;;;16.96;67.13;101418.09;4965966;28;20174;-79
2022/06/05 06:12:50;;;;;;;16.60;10.48;;;;;;;17.03;69.54;101423.06;4969887;28;20114;-79
2022/06/05 06:15:15;;;;;;;15.88;11.10;;;;;;;17.09;67.51;101414.97;4967658;28;20046;-79
2022/06/05 06:17:41;;;;;;;20.35;11.32;;;;;;;17.18;69.44;101414.59;4969050;28;20166;-79
2022/06/05 06:20:07;;;;;;;19.75;11.88;;;;;;;17.22;67.01;101422.25;4979395;28;20136;-76
2022/06/05 06:22:34;;;;;;;17.45;11.73;;;;;;;17.22;66.14;101408.28;4972015;28;20536;-75
2022/06/05 06:24:59;;;;;;;18.77;11.18;;;;;;;17.26;68.19;101400.22;4972360;28;20512;-76
2022/06/05 06:27:26;;;;;;;17.58;11.45;;;;;;;17.31;66.75;101400.91;4981202;28;20182;-75
2022/06/05 06:29:52;;;;;;;18.48;11.75;;;;;;;17.38;69.07;101399.72;4967625;28;20035;-76
2022/06/05 06:32:17;;;;;;;16.27;11.32;;;;;;;17.46;66.66;101398.53;4976023;28;20034;-75
2022/06/05 06:34:42;;;;;;;19.47;11.53;;;;;;;17.52;66.39;101396.50;4971037;28;20022;-76
2022/06/05 06:37:08;;;;;;;16.40;10.95;;;;;;;17.60;66.05;101397.03;4968900;28;20381;-76
2022/06/05 06:39:33;;;;;;;19.70;11.70;;;;;;;17.65;65.35;101387.22;4972853;28;20023;-75
2022/06/05 06:41:59;;;;;;;19.98;11.88;;;;;;;17.68;65.81;101384.44;4968826;28;20872;-76
2022/06/05 06:44:25;;;;;;;19.38;11.88;;;;;;;17.80;65.20;101390.06;4975396;28;20034;-76
2022/06/05 06:46:50;;;;;;;21.25;11.93;;;;;;;17.88;64.82;101383.53;4974011;28;20027;-76
2022/06/05 06:49:16;;;;;;;18.77;12.18;;;;;;;17.99;65.42;101367.31;4973189;28;20029;-76
2022/06/05 06:51:42;;;;;;;18.80;12.25;;;;;;;18.06;65.14;101374.00;4970713;28;20053;-76
2022/06/05 06:54:07;;;;;;;18.38;11.52;;;;;;;18.17;64.71;101369.09;4972197;28;20027;-76
2022/06/05 06:56:34;;;;;;;18.27;12.52;;;;;;;18.26;64.29;101352.91;4972467;28;20344;-76
2022/06/05 06:59:01;;;;;;;19.42;11.73;;;;;;;18.37;65.65;101362.91;4974148;28;20397;-76
2022/06/05 07:01:27;;;;;;;17.88;11.73;;;;;;;18.43;63.87;101346.84;4972751;28;20167;-76
2022/06/05 07:03:53;;;;;;;19.05;12.25;;;;;;;18.48;63.34;101343.09;4972764;28;20149;-76
2022/06/05 07:06:21;;;;;;;18.60;12.40;;;;;;;18.54;65.54;101336.69;4964797;28;20046;-76
2022/06/05 07:08:46;;;;;;;19.23;12.20;;;;;;;18.60;65.40;101341.69;4963904;28;20161;-76
2022/06/05 07:11:14;;;;;;;19.20;12.80;;;;;;;18.74;64.60;101349.72;4979023;28;20109;-76
2022/06/05 07:13:40;;;;;;;18.52;12.48;;;;;;;18.83;64.03;101341.38;4972119;28;20045;-76
2022/06/05 07:16:07;;;;;;;18.45;12.55;;;;;;;18.96;63.99;101332.91;4981701;28;20026;-77
2022/06/05 07:18:33;;;;;;;17.73;12.32;;;;;;;19.04;64.07;101326.31;4972227;28;20407;-76
2022/06/05 07:21:07;;;;;;;18.92;13.65;;;;;;;19.19;63.26;101314.16;4969440;28;20050;-76
2022/06/05 07:23:32;;;;;;;17.05;13.00;;;;;;;19.28;64.20;101311.06;4960484;28;20033;-76
2022/06/05 07:25:57;;;;;;;18.10;13.02;;;;;;;19.35;65.36;101320.31;4972363;28;20039;-76
2022/06/05 07:28:23;;;;;;;17.13;12.82;;;;;;;19.51;65.38;101312.50;4971014;28;20030;-77
2022/06/05 07:30:50;;;;;;;17.13;13.43;;;;;;;19.56;62.99;101316.59;4970172;28;20113;-77
2022/06/05 07:33:16;;;;;;;18.30;13.35;;;;;;;19.64;65.60;101314.41;4977827;28;20030;-77
2022/06/05 07:35:42;;;;;;;18.63;13.20;;;;;;;19.77;61.76;101313.75;4979539;28;20034;-77
2022/06/05 07:38:11;;;;;;;19.25;12.82;;;;;;;19.87;65.04;101302.63;4970981;28;20019;-77
2022/06/05 07:40:41;;;;;;;18.98;13.40;;;;;;;20.03;64.67;101306.09;4972299;28;20030;-77
2022/06/05 07:43:09;;;;;;;19.58;13.60;;;;;;;20.14;62.32;101305.50;4972093;28;20430;-77
2022/06/05 07:45:36;;;;;;;20.00;13.23;;;;;;;20.29;62.14;101299.38;4972330;28;20497;-78
2022/06/05 07:48:01;;;;;;;17.95;13.55;;;;;;;20.34;60.33;101293.88;4969694;28;20027;-76
2022/06/05 07:50:27;;;;;;;18.88;13.60;;;;;;;20.34;62.03;101292.09;4970326;28;20023;-77
2022/06/05 07:55:36;;;;;;;17.55;13.55;;;;;;;20.56;61.65;101286.44;4979707;28;20105;-77
2022/06/05 07:58:01;;;;;;;18.90;13.57;;;;;;;20.68;62.80;101284.84;4971834;28;20030;-77
2022/06/05 08:00:27;;;;;;;21.73;13.63;;;;;;;20.80;62.86;101290.28;4976259;28;20195;-78
2022/06/05 08:02:52;;;;;;;18.65;13.57;;;;;;;20.98;61.00;101287.47;4958159;28;20043;-77
2022/06/05 08:05:17;;;;;;;17.42;14.02;;;;;;;21.14;59.63;101281.19;4970326;28;20070;-78
2022/06/05 08:07:43;;;;;;;18.13;13.93;;;;;;;21.32;61.62;101284.53;4970877;28;20437;-78
2022/06/05 08:10:08;;;;;;;18.30;13.43;;;;;;;21.55;61.82;101273.41;4969884;28;20049;-77
2022/06/05 08:12:35;;;;;;;18.83;13.85;;;;;;;21.74;56.57;101266.97;4971608;28;20039;-77
2022/06/05 08:15:08;;;;;;;19.60;14.63;;;;;;;21.91;58.65;101256.16;4980482;28;20477;-77
2022/06/05 08:17:35;;;;;;;18.03;15.13;;;;;;;22.24;57.64;101255.81;4979291;28;20027;-77
2022/06/05 08:20:01;;;;;;;18.25;14.70;;;;;;;22.57;59.30;101248.28;4971015;28;20054;-77
2022/06/05 08:22:27;;;;;;;19.25;15.25;;;;;;;22.90;58.77;101257.56;4971363;28;20107;-77
2022/06/05 08:24:53;;;;;;;21.40;15.88;;;;;;;23.11;57.81;101258.72;4978231;28;20029;-78
2022/06/05 08:27:23;;;;;;;22.85;15.32;;;;;;;23.45;58.11;101265.16;4969960;28;20031;-78
2022/06/05 08:29:49;;;;;;;18.08;14.82;;;;;;;23.71;57.09;101258.88;4965518;28;20030;-78
2022/06/05 08:32:15;;;;;;;19.08;15.60;;;;;;;23.74;55.15;101256.00;4964684;28;20031;-78
2022/06/05 08:34:41;;;;;;;16.55;14.57;;;;;;;23.93;56.79;101259.00;4971208;28;20042;-78
2022/06/05 08:43:13;;;;;;;18.15;15.07;;;;;;;24.15;53.18;101253.00;4969009;28;20401;-78
2022/06/05 08:46:01;;;;;;;17.65;13.63;;;;;;;24.10;55.16;101243.66;4972243;28;20035;-78
2022/06/05 08:48:31;;;;;;;17.35;14.85;;;;;;;23.97;53.60;101239.28;4974443;28;20402;-78
2022/06/05 08:51:12;;;;;;;19.25;14.40;;;;;;;23.82;55.02;101248.34;4979342;28;20031;-78
2022/06/05 08:53:49;;;;;;;17.30;15.23;;;;;;;23.66;53.85;101254.88;4959547;28;20120;-78
2022/06/05 08:56:39;;;;;;;17.33;14.80;;;;;;;23.47;55.29;101260.59;4959905;28;20450;-78
2022/06/05 08:59:52;;;;;;;17.77;15.88;;;;;;;23.26;55.58;101260.31;4969689;28;20023;-78
2022/06/05 09:02:35;;;;;;;18.35;15.57;;;;;;;23.02;56.65;101257.56;4958556;28;20182;-78
2022/06/05 09:05:08;;;;;;;20.70;15.07;;;;;;;22.87;56.54;101253.31;4963789;28;20023;-78
2022/06/05 09:07:56;;;;;;;18.25;15.15;;;;;;;22.86;57.67;101256.09;4971834;28;20294;-78
2022/06/05 09:10:28;;;;;;;19.00;15.93;;;;;;;22.70;57.94;101254.44;4973534;28;20046;-78
2022/06/05 09:13:00;;;;;;;20.50;16.23;;;;;;;22.60;59.50;101255.16;4969530;28;20027;-78
2022/06/05 09:15:30;;;;;;;19.17;16.40;;;;;;;22.61;59.57;101251.56;4973667;28;20502;-78
2022/06/05 09:18:01;;;;;;;20.23;16.27;;;;;;;22.52;59.56;101260.13;4968107;28;20437;-78
2022/06/05 09:20:41;;;;;;;17.90;14.95;;;;;;;22.41;60.73;101263.47;4970071;28;20450;-78
2022/06/05 09:23:21;;;;;;;19.58;16.55;;;;;;;22.34;59.08;101262.19;4977211;28;20034;-78
2022/06/05 09:25:54;;;;;;;20.50;17.33;;;;;;;22.20;60.02;101260.44;4975758;28;20106;-78
2022/06/05 09:28:33;;;;;;;20.23;16.52;;;;;;;22.12;60.75;101257.44;4969188;28;20030;-79
2022/06/05 09:31:33;;;;;;;20.45;16.90;;;;;;;22.08;60.34;101260.41;4950115;28;20059;-79
2022/06/05 09:34:04;;;;;;;18.55;14.68;;;;;;;21.97;62.63;101248.72;4963180;28;20038;-80
2022/06/05 09:36:32;;;;;;;20.60;16.45;;;;;;;21.98;60.42;101247.78;4960053;28;20019;-80
2022/06/05 09:39:01;;;;;;;18.38;16.00;;;;;;;21.91;61.33;101249.09;4977152;28;20034;-80
2022/06/05 09:41:51;;;;;;;21.60;17.25;;;;;;;21.84;61.40;101245.16;4966912;28;20030;-79
2022/06/05 09:44:35;;;;;;;18.40;15.85;;;;;;;21.77;61.55;101243.84;4956418;28;20027;-80
2022/06/05 09:47:04;;;;;;;20.48;16.45;;;;;;;21.67;63.02;101248.03;4965870;28;20034;-79
2022/06/05 09:49:47;;;;;;;20.27;16.42;;;;;;;21.67;61.92;101240.13;4962506;28;20034;-79
2022/06/05 09:52:19;;;;;;;19.25;15.80;;;;;;;21.58;64.81;101240.69;4968704;28;20033;-80
2022/06/05 09:55:09;;;;;;;20.23;16.70;;;;;;;21.56;63.05;101229.41;4963271;28;20066;-79
2022/06/05 10:00:41;;;;;;;22.67;17.65;;;;;;;21.36;64.54;101225.34;4984363;28;20171;-78
2022/06/05 10:03:12;;;;;;;22.55;16.65;;;;;;;21.27;64.55;101215.41;4985153;28;20153;-78
2022/06/05 10:05:44;;;;;;;22.30;17.15;;;;;;;21.21;64.87;101214.00;4965157;28;20343;-78
2022/06/05 10:08:36;;;;;;;21.02;15.95;;;;;;;21.21;64.72;101208.72;4964854;28;20113;-78
2022/06/05 10:11:02;;;;;;;23.60;18.30;;;;;;;21.07;64.62;101211.34;4973911;28;20147;-78
2022/06/05 10:13:51;;;;;;;24.05;18.52;;;;;;;21.05;64.09;101202.66;4965649;28;20027;-78
2022/06/05 10:16:34;;;;;;;21.33;17.58;;;;;;;20.99;65.27;101207.47;4954999;28;20031;-78
2022/06/05 10:19:21;;;;;;;20.77;17.35;;;;;;;20.97;66.65;101201.44;4961719;28;20030;-78
2022/06/05 10:21:58;;;;;;;23.30;17.73;;;;;;;21.01;67.05;101205.59;4973092;28;20125;-82
2022/06/05 10:24:54;;;;;;;24.33;18.50;;;;;;;21.03;64.83;101201.91;4964275;28;20015;-78
2022/06/05 10:27:20;;;;;;;23.42;18.35;;;;;;;21.04;67.38;101195.69;4962946;28;20039;-78
2022/06/05 10:29:48;;;;;;;25.58;18.65;;;;;;;21.06;67.49;101185.91;4972218;28;20193;-79
2022/06/05 10:32:19;;;;;;;26.13;18.17;;;;;;;21.09;67.41;101190.13;4982724;28;20027;-80
2022/06/05 10:35:11;;;;;;;23.35;18.48;;;;;;;21.13;65.38;101187.22;4971525;28;20037;-79
2022/06/05 10:38:29;;;;;;;23.83;18.30;;;;;;;21.17;66.51;101190.53;4971954;28;20023;-79
2022/06/05 10:41:04;;;;;;;23.20;18.10;;;;;;;21.08;67.98;101191.94;4946609;28;20379;-79
2022/06/05 10:43:32;;;;;;;23.13;18.40;;;;;;;21.04;66.71;101189.56;4982782;28;20049;-79
2022/06/05 10:46:01;;;;;;;21.88;17.40;;;;;;;21.00;66.97;101188.09;4968799;28;20027;-79
2022/06/05 10:49:06;;;;;;;22.88;19.08;;;;;;;20.96;66.88;101195.31;4966050;28;20026;-79
2022/06/05 10:52:02;;;;;;;21.45;17.60;;;;;;;20.87;69.36;101196.75;4969203;28;20500;-79
2022/06/05 10:54:42;;;;;;;23.77;18.50;;;;;;;20.75;71.56;101194.81;4970201;28;20481;-80
2022/06/05 10:57:20;;;;;;;24.48;19.25;;;;;;;20.68;70.17;101190.00;4973476;28;20490;-79
2022/06/05 11:00:13;;;;;;;26.40;19.83;;;;;;;20.63;71.88;101192.09;4980170;28;20026;-78
2022/06/05 11:03:04;;;;;;;25.30;19.77;;;;;;;20.60;70.41;101189.66;4963265;28;20077;-78
2022/06/05 11:05:54;;;;;;;25.55;19.65;;;;;;;20.49;71.95;101185.84;4970814;28;20035;-77
2022/06/05 11:09:04;;;;;;;25.92;19.60;;;;;;;20.46;71.53;101185.22;4958266;28;20035;-78
2022/06/05 11:14:42;;;;;;;24.70;20.10;;;;;;;20.31;73.71;101186.91;4972282;28;20045;-79
2022/06/05 11:17:32;;;;;;;24.60;19.80;;;;;;;20.25;74.06;101186.44;4973122;28;20034;-77
2022/06/05 11:20:09;;;;;;;27.90;20.42;;;;;;;20.14;77.02;101173.88;4965982;28;20023;-78
2022/06/05 11:22:38;;;;;;;29.02;21.55;;;;;;;20.07;77.13;101164.63;4966252;28;20105;-78
2022/06/05 11:25:12;;;;;;;27.38;22.23;;;;;;;20.02;76.49;101164.91;4964561;28;20030;-80
2022/06/05 11:27:53;;;;;;;29.95;22.33;;;;;;;20.03;76.20;101166.63;4987010;28;20042;-79
2022/06/05 11:30:29;;;;;;;26.98;21.95;;;;;;;20.00;77.44;101166.78;4970021;28;20481;-79
2022/06/05 11:32:57;;;;;;;29.70;23.25;;;;;;;19.91;77.80;101159.44;4987173;28;20062;-79
2022/06/05 11:35:40;;;;;;;31.38;23.80;;;;;;;19.86;79.01;101163.25;4971714;28;20027;-80
2022/06/05 11:38:24;;;;;;;33.00;24.25;;;;;;;19.77;78.41;101161.16;4970977;28;20154;-80
2022/06/05 11:41:19;;;;;;;30.85;24.92;;;;;;;19.67;79.06;101166.06;4974719;28;20037;-80
2022/06/05 11:43:45;;;;;;;32.50;25.75;;;;;;;19.47;82.92;101155.81;4978744;28;20458;-80
2022/06/05 11:46:35;;;;;;;36.00;25.00;;;;;;;19.37;82.55;101159.88;4964840;28;20048;-80
2022/06/05 11:49:10;;;;;;;34.45;24.95;;;;;;;19.17;86.83;101163.59;4968885;28;20033;-80
2022/06/05 11:51:54;;;;;;;36.28;26.60;;;;;;;19.02;87.10;101160.00;4978361;28;20434;-80